Time;durP1;ratioP1;P1;durP2;ratioP2;P2;SDS_P1;SDS_P2;PMS_P1;PMS_P2;Temp;Humidity;BMP_temperature;BMP_pressure;BME280_temperature;BME280_humidity;BME280_pressure;Samples;Min_cycle;Max_cycle;Signal;HPM_P1;HPM_P2
2022/02/24 00:01:44;;;;;;;4.82;1.67;;;;;;;;;;5096615;28;20031;-75
2022/02/24 00:04:11;;;;;;;3.15;1.42;;;;;;;;;;5095964;28;20050;-75
2022/02/24 00:06:37;;;;;;;2.72;1.20;;;;;;;;;;5095845;28;20481;-76
2022/02/24 00:09:03;;;;;;;2.22;1.33;;;;;;;;;;5108262;28;20042;-76
2022/02/24 00:11:29;;;;;;;1.73;1.23;;;;;;;;;;5095570;28;20106;-75
2022/02/24 00:13:55;;;;;;;2.20;1.27;;;;;;;;;;5104018;28;20024;-75
2022/02/24 00:16:21;;;;;;;2.22;1.38;;;;;;;;;;5106295;28;20027;-76
2022/02/24 00:18:47;;;;;;;3.83;1.50;;;;;;;;;;5105366;28;20099;-76
2022/02/24 00:21:13;;;;;;;2.97;1.40;;;;;;;;;;5087948;28;20034;-76
2022/02/24 00:23:39;;;;;;;2.60;1.40;;;;;;;;;;5111108;28;20057;-76
2022/02/24 00:26:05;;;;;;;3.30;1.25;;;;;;;;;;5090226;28;20027;-75
2022/02/24 00:28:31;;;;;;;2.22;1.42;;;;;;;;;;5077310;28;20048;-76
2022/02/24 00:30:57;;;;;;;2.65;1.40;;;;;;;;;;5078254;28;20122;-76
2022/02/24 00:33:23;;;;;;;2.90;1.40;;;;;;;;;;5097812;28;20775;-75
2022/02/24 00:35:49;;;;;;;3.20;1.38;;;;;;;;;;5075114;28;20028;-76
2022/02/24 00:38:15;;;;;;;2.47;1.33;;;;;;;;;;5091020;28;20020;-76
2022/02/24 00:40:41;;;;;;;3.97;1.48;;;;;;;;;;5097590;28;20464;-75
2022/02/24 00:43:07;;;;;;;3.47;1.42;;;;;;;;;;5099685;28;20024;-76
2022/02/24 00:45:33;;;;;;;3.28;1.38;;;;;;;;;;5104263;28;20024;-75
2022/02/24 00:47:59;;;;;;;1.90;1.17;;;;;;;;;;5091124;28;20027;-76
2022/02/24 00:50:25;;;;;;;2.28;1.27;;;;;;;;;;5090299;28;20035;-77
2022/02/24 00:52:56;;;;;;;2.65;1.50;;;;;;;;;;5087654;28;20545;-75
2022/02/24 00:55:22;;;;;;;2.53;1.52;;;;;;;;;;5099605;28;20020;-76
2022/02/24 00:57:48;;;;;;;3.25;1.45;;;;;;;;;;5102826;28;20031;-75
2022/02/24 01:00:14;;;;;;;5.13;1.60;;;;;;;;;;5108680;28;20441;-76
2022/02/24 01:02:40;;;;;;;3.33;1.67;;;;;;;;;;5093496;28;20085;-76
2022/02/24 01:05:06;;;;;;;6.60;2.15;;;;;;;;;;5096045;28;20032;-75
2022/02/24 01:07:32;;;;;;;3.58;1.83;;;;;;;;;;5104251;28;20073;-75
2022/02/24 01:09:58;;;;;;;3.50;1.75;;;;;;;;;;5108823;28;20039;-75
2022/02/24 01:12:24;;;;;;;2.95;1.75;;;;;;;;;;5108203;28;20024;-76
2022/02/24 01:14:50;;;;;;;2.80;1.60;;;;;;;;;;5084472;28;20042;-75
2022/02/24 01:17:16;;;;;;;2.97;1.58;;;;;;;;;;5097560;28;20393;-76
2022/02/24 01:19:42;;;;;;;3.30;1.77;;;;;;;;;;5097816;28;20107;-76
2022/02/24 01:22:08;;;;;;;3.38;1.65;;;;;;;;;;5080767;28;20474;-76
2022/02/24 01:24:35;;;;;;;3.60;1.70;;;;;;;;;;5079262;28;20068;-75
2022/02/24 01:27:01;;;;;;;4.15;1.80;;;;;;;;;;5091999;28;20027;-76
2022/02/24 01:29:27;;;;;;;4.15;2.10;;;;;;;;;;5108915;28;20055;-74
2022/02/24 01:31:53;;;;;;;3.95;1.90;;;;;;;;;;5096841;28;20044;-76
2022/02/24 01:34:19;;;;;;;6.05;2.35;;;;;;;;;;5097521;28;20385;-76
2022/02/24 01:36:46;;;;;;;4.40;2.00;;;;;;;;;;5078889;28;20032;-76
2022/02/24 01:39:11;;;;;;;2.95;1.60;;;;;;;;;;5089639;28;20392;-76
2022/02/24 01:41:38;;;;;;;3.92;2.10;;;;;;;;;;5108701;28;20106;-76
2022/02/24 01:44:08;;;;;;;4.03;2.00;;;;;;;;;;5096808;28;20077;-77
2022/02/24 01:46:35;;;;;;;2.88;1.70;;;;;;;;;;5096939;28;20032;-76
2022/02/24 01:49:01;;;;;;;2.28;1.55;;;;;;;;;;5097077;28;20043;-76
2022/02/24 01:51:27;;;;;;;4.97;2.13;;;;;;;;;;5079390;28;20102;-75
2022/02/24 01:53:53;;;;;;;5.25;2.22;;;;;;;;;;5093806;28;20114;-76
2022/02/24 01:56:19;;;;;;;4.50;2.67;;;;;;;;;;5094963;28;20442;-76
2022/02/24 01:58:45;;;;;;;5.05;2.58;;;;;;;;;;5105703;28;20507;-76
2022/02/24 02:01:11;;;;;;;5.35;2.33;;;;;;;;;;5101811;28;20051;-75
2022/02/24 02:03:39;;;;;;;4.43;2.10;;;;;;;;;;5096204;28;20102;-76
2022/02/24 02:06:05;;;;;;;5.05;2.53;;;;;;;;;;5077190;28;20028;-76
2022/02/24 02:08:32;;;;;;;3.90;2.25;;;;;;;;;;5094173;28;20024;-77
2022/02/24 02:10:58;;;;;;;5.45;2.42;;;;;;;;;;5094272;28;20400;-77
2022/02/24 02:13:24;;;;;;;4.20;2.10;;;;;;;;;;5103373;28;20048;-76
2022/02/24 02:15:52;;;;;;;4.35;1.58;;;;;;;;;;5104025;28;20024;-76
2022/02/24 02:18:19;;;;;;;3.00;1.63;;;;;;;;;;5099168;28;20016;-76
2022/02/24 02:20:45;;;;;;;4.45;1.98;;;;;;;;;;5095023;28;20023;-76
2022/02/24 02:23:11;;;;;;;5.20;2.10;;;;;;;;;;5081444;28;20380;-76
2022/02/24 02:25:37;;;;;;;5.82;2.35;;;;;;;;;;5108148;28;20023;-76
2022/02/24 02:28:03;;;;;;;4.97;2.50;;;;;;;;;;5105668;28;20044;-76
2022/02/24 02:30:30;;;;;;;4.05;2.13;;;;;;;;;;5100036;28;20476;-76
2022/02/24 02:32:57;;;;;;;5.82;2.42;;;;;;;;;;5095983;28;20473;-76
2022/02/24 02:35:23;;;;;;;4.10;2.28;;;;;;;;;;5097798;28;20032;-75
2022/02/24 02:37:50;;;;;;;5.15;2.60;;;;;;;;;;5100133;28;20062;-76
2022/02/24 02:40:16;;;;;;;4.78;2.50;;;;;;;;;;5100151;28;20032;-76
2022/02/24 02:42:42;;;;;;;5.22;2.55;;;;;;;;;;5081827;28;20028;-76
2022/02/24 02:45:09;;;;;;;4.65;2.38;;;;;;;;;;5080326;28;20415;-76
2022/02/24 02:47:35;;;;;;;4.70;2.53;;;;;;;;;;5113072;28;20539;-77
2022/02/24 02:50:01;;;;;;;5.03;2.83;;;;;;;;;;5081207;28;20484;-76
2022/02/24 02:52:27;;;;;;;4.15;2.25;;;;;;;;;;5099313;28;20016;-77
2022/02/24 02:54:59;;;;;;;4.35;2.50;;;;;;;;;;5101929;28;20027;-77
2022/02/24 02:57:25;;;;;;;3.55;1.98;;;;;;;;;;5106901;28;20019;-76
2022/02/24 02:59:51;;;;;;;3.75;2.10;;;;;;;;;;5093452;28;20102;-76
2022/02/24 03:02:17;;;;;;;3.75;2.17;;;;;;;;;;5079492;28;20042;-76
2022/02/24 03:04:43;;;;;;;3.78;1.77;;;;;;;;;;5081357;28;20028;-75
2022/02/24 03:07:09;;;;;;;4.03;2.20;;;;;;;;;;5103383;28;20024;-76
2022/02/24 03:09:36;;;;;;;3.58;2.08;;;;;;;;;;5090775;28;20038;-75
2022/02/24 03:12:02;;;;;;;3.70;1.98;;;;;;;;;;5078579;28;20031;-75
2022/02/24 03:14:28;;;;;;;3.90;2.30;;;;;;;;;;5106961;28;20028;-76
2022/02/24 03:16:54;;;;;;;5.50;2.63;;;;;;;;;;5088942;28;20033;-75
2022/02/24 03:19:20;;;;;;;4.30;1.92;;;;;;;;;;5102469;28;20028;-76
2022/02/24 03:21:46;;;;;;;6.32;2.40;;;;;;;;;;5099218;28;20028;-76
2022/02/24 03:24:12;;;;;;;4.30;2.20;;;;;;;;;;5097668;28;20027;-76
2022/02/24 03:26:39;;;;;;;4.32;2.08;;;;;;;;;;5095444;28;20123;-76
2022/02/24 03:29:05;;;;;;;3.58;1.75;;;;;;;;;;5109047;28;20051;-76
2022/02/24 03:31:31;;;;;;;6.18;2.15;;;;;;;;;;5100480;28;20122;-76
2022/02/24 03:33:57;;;;;;;3.78;1.90;;;;;;;;;;5100676;28;20110;-76
2022/02/24 03:36:23;;;;;;;4.07;1.90;;;;;;;;;;5110200;28;20031;-76
2022/02/24 03:38:49;;;;;;;3.33;1.98;;;;;;;;;;5077502;28;20031;-76
2022/02/24 03:41:15;;;;;;;5.68;1.95;;;;;;;;;;5091074;28;20028;-76
2022/02/24 03:43:41;;;;;;;3.95;1.92;;;;;;;;;;5081140;28;20072;-76
2022/02/24 03:46:07;;;;;;;4.13;2.15;;;;;;;;;;5098345;28;20548;-76
2022/02/24 03:48:33;;;;;;;3.00;1.80;;;;;;;;;;5098016;28;20438;-76
2022/02/24 03:50:59;;;;;;;3.38;2.08;;;;;;;;;;5077619;28;20043;-76
2022/02/24 03:53:25;;;;;;;4.10;2.20;;;;;;;;;;5095666;28;20599;-76
2022/02/24 03:55:51;;;;;;;3.78;2.13;;;;;;;;;;5098760;28;20036;-76
2022/02/24 03:58:17;;;;;;;3.35;1.60;;;;;;;;;;5102536;28;20156;-75
2022/02/24 04:00:43;;;;;;;3.70;1.90;;;;;;;;;;5106558;28;20533;-76
2022/02/24 04:03:09;;;;;;;4.05;1.80;;;;;;;;;;5096056;28;20400;-76
2022/02/24 04:05:35;;;;;;;4.93;2.10;;;;;;;;;;5095095;28;20035;-75
2022/02/24 04:08:01;;;;;;;3.70;2.10;;;;;;;;;;5079298;28;20136;-76
2022/02/24 04:10:27;;;;;;;3.08;1.77;;;;;;;;;;5098017;28;20036;-76
2022/02/24 04:12:53;;;;;;;4.00;2.05;;;;;;;;;;5097402;28;20031;-70
2022/02/24 04:15:19;;;;;;;4.05;1.83;;;;;;;;;;5088866;28;20396;-69
2022/02/24 04:17:45;;;;;;;5.75;2.42;;;;;;;;;;5093586;28;20036;-69
2022/02/24 04:20:10;;;;;;;6.03;2.45;;;;;;;;;;5097319;28;20439;-69
2022/02/24 04:22:36;;;;;;;3.88;2.17;;;;;;;;;;5105510;28;20038;-69
2022/02/24 04:25:03;;;;;;;3.70;1.92;;;;;;;;;;5110919;28;20031;-70
2022/02/24 04:27:28;;;;;;;3.90;1.70;;;;;;;;;;5110616;28;20103;-70
2022/02/24 04:29:55;;;;;;;2.42;1.58;;;;;;;;;;5091282;28;20130;-69
2022/02/24 04:32:21;;;;;;;2.90;1.65;;;;;;;;;;5093829;28;20020;-70
2022/02/24 04:34:47;;;;;;;4.07;2.00;;;;;;;;;;5092689;28;20035;-70
2022/02/24 04:37:13;;;;;;;3.80;2.10;;;;;;;;;;5092723;28;20373;-68
2022/02/24 04:39:38;;;;;;;3.60;2.10;;;;;;;;;;5106334;28;20039;-68
2022/02/24 04:42:05;;;;;;;4.85;2.22;;;;;;;;;;5094750;28;20081;-75
2022/02/24 04:44:31;;;;;;;4.90;2.08;;;;;;;;;;5094712;28;20583;-69
2022/02/24 04:46:57;;;;;;;4.82;2.05;;;;;;;;;;5096337;28;20047;-70
2022/02/24 04:49:23;;;;;;;4.80;2.00;;;;;;;;;;5097031;28;20043;-71
2022/02/24 04:51:49;;;;;;;3.42;1.92;;;;;;;;;;5097308;28;20133;-69
2022/02/24 04:54:15;;;;;;;6.47;2.10;;;;;;;;;;5096535;28;20027;-70
2022/02/24 04:56:41;;;;;;;4.35;2.10;;;;;;;;;;5093272;28;20039;-70
2022/02/24 04:59:07;;;;;;;5.15;2.53;;;;;;;;;;5096559;28;20027;-69
2022/02/24 05:01:33;;;;;;;4.57;2.35;;;;;;;;;;5097171;28;20077;-70
2022/02/24 05:03:59;;;;;;;3.55;2.05;;;;;;;;;;5097210;28;20024;-70
2022/02/24 05:06:25;;;;;;;4.28;2.40;;;;;;;;;;5096806;28;20030;-71
2022/02/24 05:08:51;;;;;;;3.65;2.17;;;;;;;;;;5092393;28;20069;-68
2022/02/24 05:11:17;;;;;;;6.20;2.00;;;;;;;;;;5096025;28;20032;-69
2022/02/24 05:13:43;;;;;;;4.65;2.20;;;;;;;;;;5102103;28;20062;-68
2022/02/24 05:16:09;;;;;;;3.63;2.05;;;;;;;;;;5101943;28;20059;-68
2022/02/24 05:18:35;;;;;;;4.40;2.03;;;;;;;;;;5096791;28;20020;-69
2022/02/24 05:21:01;;;;;;;4.38;1.90;;;;;;;;;;5093838;28;20073;-68
2022/02/24 05:23:27;;;;;;;2.78;1.70;;;;;;;;;;5076330;28;20508;-69
2022/02/24 05:25:53;;;;;;;6.60;2.03;;;;;;;;;;5096876;28;20103;-68
2022/02/24 05:28:19;;;;;;;3.40;1.85;;;;;;;;;;5096777;28;20122;-69
2022/02/24 05:30:45;;;;;;;4.03;1.90;;;;;;;;;;5096494;28;20489;-70
2022/02/24 05:33:11;;;;;;;4.65;1.70;;;;;;;;;;5078010;28;20472;-70
2022/02/24 05:35:37;;;;;;;3.50;2.10;;;;;;;;;;5093868;28;20031;-70
2022/02/24 05:38:03;;;;;;;4.15;2.00;;;;;;;;;;5096140;28;20059;-69
2022/02/24 05:40:29;;;;;;;3.03;1.77;;;;;;;;;;5096663;28;20497;-70
2022/02/24 05:42:55;;;;;;;3.97;1.95;;;;;;;;;;5098293;28;20023;-71
2022/02/24 05:45:21;;;;;;;3.60;1.80;;;;;;;;;;5108299;28;20020;-69
2022/02/24 05:47:47;;;;;;;3.78;1.80;;;;;;;;;;5092662;28;20031;-70
2022/02/24 05:50:13;;;;;;;4.03;1.98;;;;;;;;;;5095585;28;20043;-70
2022/02/24 05:52:40;;;;;;;3.08;1.70;;;;;;;;;;5099111;28;20123;-75
2022/02/24 05:55:06;;;;;;;2.83;1.90;;;;;;;;;;5100805;28;20024;-74
2022/02/24 05:57:32;;;;;;;4.32;2.10;;;;;;;;;;5100904;28;20023;-74
2022/02/24 05:59:58;;;;;;;5.00;2.05;;;;;;;;;;5079665;28;20032;-73
2022/02/24 06:02:25;;;;;;;5.22;2.20;;;;;;;;;;5079877;28;20527;-73
2022/02/24 06:04:51;;;;;;;4.15;1.80;;;;;;;;;;5110395;28;20039;-73
2022/02/24 06:07:17;;;;;;;9.73;4.18;;;;;;;;;;5104114;28;20108;-74
2022/02/24 06:09:44;;;;;;;13.30;5.28;;;;;;;;;;5083346;28;20135;-73
2022/02/24 06:12:10;;;;;;;8.73;4.00;;;;;;;;;;5112485;28;20065;-74
2022/02/24 06:14:36;;;;;;;6.78;3.08;;;;;;;;;;5107689;28;20111;-74
2022/02/24 06:17:02;;;;;;;10.30;4.50;;;;;;;;;;5081738;28;20110;-73
2022/02/24 06:19:28;;;;;;;11.40;4.70;;;;;;;;;;5100190;28;20020;-73
2022/02/24 06:21:54;;;;;;;8.32;3.58;;;;;;;;;;5100041;28;20583;-73
2022/02/24 06:24:20;;;;;;;8.38;3.78;;;;;;;;;;5100215;28;20031;-73
2022/02/24 06:26:46;;;;;;;6.00;2.88;;;;;;;;;;5096043;28;20023;-73
2022/02/24 06:29:12;;;;;;;6.22;2.72;;;;;;;;;;5099102;28;20157;-74
2022/02/24 06:31:39;;;;;;;6.25;2.72;;;;;;;;;;5099458;28;20040;-71
2022/02/24 06:34:06;;;;;;;5.10;2.80;;;;;;;;;;5082237;28;20473;-72
2022/02/24 06:36:32;;;;;;;5.35;2.30;;;;;;;;;;5099168;28;20035;-71
2022/02/24 06:38:58;;;;;;;5.32;2.67;;;;;;;;;;5078674;28;20024;-72
2022/02/24 06:41:25;;;;;;;3.65;2.33;;;;;;;;;;5097460;28;20103;-73
2022/02/24 06:43:51;;;;;;;5.68;2.72;;;;;;;;;;5109586;28;20023;-74
2022/02/24 06:46:20;;;;;;;5.80;2.80;;;;;;;;;;5103736;28;20077;-73
2022/02/24 06:48:46;;;;;;;5.68;2.83;;;;;;;;;;5081189;28;20024;-73
2022/02/24 06:51:12;;;;;;;6.18;2.70;;;;;;;;;;5098331;28;20080;-75
2022/02/24 06:53:38;;;;;;;4.82;2.50;;;;;;;;;;5078397;28;20484;-75
2022/02/24 06:56:05;;;;;;;5.07;2.70;;;;;;;;;;5081103;28;20047;-75
2022/02/24 06:58:31;;;;;;;6.07;2.60;;;;;;;;;;5077541;28;20028;-76
2022/02/24 07:00:58;;;;;;;6.30;2.38;;;;;;;;;;5080804;28;20713;-69
2022/02/24 07:03:24;;;;;;;5.25;2.55;;;;;;;;;;5079256;28;20028;-70
2022/02/24 07:05:50;;;;;;;4.53;1.98;;;;;;;;;;5094155;28;20139;-69
2022/02/24 07:08:16;;;;;;;5.07;2.35;;;;;;;;;;5079580;28;20031;-69
2022/02/24 07:10:42;;;;;;;5.85;2.67;;;;;;;;;;5080015;28;20032;-69
2022/02/24 07:13:08;;;;;;;4.38;2.45;;;;;;;;;;5099048;28;20023;-69
2022/02/24 07:15:34;;;;;;;7.88;2.83;;;;;;;;;;5111039;28;20179;-70
2022/02/24 07:18:00;;;;;;;5.50;2.60;;;;;;;;;;5110970;28;20468;-68
2022/02/24 07:20:26;;;;;;;10.05;5.63;;;;;;;;;;5110411;28;20039;-68
2022/02/24 07:22:52;;;;;;;8.82;3.55;;;;;;;;;;5109257;28;20054;-68
2022/02/24 07:25:18;;;;;;;8.00;3.10;;;;;;;;;;5086862;28;20059;-68
2022/02/24 07:27:44;;;;;;;6.25;3.15;;;;;;;;;;5081301;28;20413;-68
2022/02/24 07:30:11;;;;;;;12.85;6.95;;;;;;;;;;5097689;28;20036;-69
2022/02/24 07:32:37;;;;;;;16.55;8.60;;;;;;;;;;5095474;28;20032;-69
2022/02/24 07:35:03;;;;;;;14.30;7.07;;;;;;;;;;5098687;28;20028;-69
2022/02/24 07:37:29;;;;;;;12.90;6.68;;;;;;;;;;5103604;28;20031;-70
2022/02/24 07:39:55;;;;;;;11.85;6.82;;;;;;;;;;5107197;28;20019;-67
2022/02/24 07:42:21;;;;;;;11.05;7.53;;;;;;;;;;5110403;28;20540;-68
2022/02/24 07:44:47;;;;;;;11.50;7.68;;;;;;;;;;5095481;28;20020;-68
2022/02/24 07:47:14;;;;;;;9.80;6.75;;;;;;;;;;5109044;28;20420;-69
2022/02/24 07:49:41;;;;;;;8.88;4.90;;;;;;;;;;5099033;28;20032;-70
2022/02/24 07:52:07;;;;;;;13.75;7.60;;;;;;;;;;5098017;28;20028;-68
2022/02/24 07:54:34;;;;;;;11.05;6.18;;;;;;;;;;5097973;28;20116;-68
2022/02/24 07:57:00;;;;;;;6.18;3.35;;;;;;;;;;5095370;28;20016;-68
2022/02/24 07:59:26;;;;;;;4.65;2.53;;;;;;;;;;5095514;28;20100;-67
2022/02/24 08:01:52;;;;;;;6.93;3.17;;;;;;;;;;5098275;28;20087;-68
2022/02/24 08:04:18;;;;;;;17.95;9.00;;;;;;;;;;5080588;28;20032;-68
2022/02/24 08:06:44;;;;;;;59.35;27.00;;;;;;;;;;5097507;28;20043;-68
2022/02/24 08:09:10;;;;;;;22.70;12.07;;;;;;;;;;5096363;28;20462;-69
2022/02/24 08:11:36;;;;;;;18.92;8.80;;;;;;;;;;5095093;28;20050;-68
2022/02/24 08:14:03;;;;;;;16.52;7.95;;;;;;;;;;5105028;28;20047;-68
2022/02/24 08:16:29;;;;;;;12.77;6.30;;;;;;;;;;5100025;28;20031;-68
2022/02/24 08:19:01;;;;;;;12.45;6.28;;;;;;;;;;5096941;28;20488;-68
2022/02/24 08:21:27;;;;;;;12.40;6.53;;;;;;;;;;5097764;28;20019;-68
2022/02/24 08:23:53;;;;;;;13.05;6.78;;;;;;;;;;5095860;28;20023;-68
2022/02/24 08:26:20;;;;;;;9.40;4.88;;;;;;;;;;5108702;28;20024;-68
2022/02/24 08:28:48;;;;;;;5.97;2.70;;;;;;;;;;5109884;28;20047;-68
2022/02/24 08:31:14;;;;;;;6.20;2.50;;;;;;;;;;5106737;28;20047;-69
2022/02/24 08:33:40;;;;;;;3.67;2.20;;;;;;;;;;5106326;28;20066;-69
2022/02/24 08:36:06;;;;;;;6.30;3.63;;;;;;;;;;5095283;28;20032;-68
2022/02/24 08:38:32;;;;;;;7.28;4.05;;;;;;;;;;5094577;28;20027;-68
2022/02/24 08:40:58;;;;;;;9.15;4.30;;;;;;;;;;5096795;28;20024;-68
2022/02/24 08:43:24;;;;;;;8.38;4.35;;;;;;;;;;5097201;28;20050;-68
2022/02/24 08:45:50;;;;;;;9.13;4.85;;;;;;;;;;5097356;28;20020;-68
2022/02/24 08:48:16;;;;;;;8.15;4.50;;;;;;;;;;5096709;28;20028;-68
2022/02/24 08:50:43;;;;;;;6.57;2.90;;;;;;;;;;5092567;28;20040;-68
2022/02/24 08:53:09;;;;;;;5.75;2.90;;;;;;;;;;5096311;28;20119;-68
2022/02/24 08:55:37;;;;;;;5.57;3.25;;;;;;;;;;5104584;28;20106;-68
2022/02/24 08:58:03;;;;;;;5.95;3.33;;;;;;;;;;5103050;28;20020;-69
2022/02/24 09:00:30;;;;;;;6.68;3.15;;;;;;;;;;5097282;28;20020;-68
2022/02/24 09:02:56;;;;;;;4.90;2.85;;;;;;;;;;5093595;28;20054;-68
2022/02/24 09:05:22;;;;;;;7.65;2.70;;;;;;;;;;5107882;28;20023;-68
2022/02/24 09:07:48;;;;;;;7.03;2.92;;;;;;;;;;5097236;28;20499;-68
2022/02/24 09:10:14;;;;;;;6.15;3.25;;;;;;;;;;5097073;28;20039;-68
2022/02/24 09:12:40;;;;;;;4.43;2.55;;;;;;;;;;5096547;28;20027;-68
2022/02/24 09:15:06;;;;;;;6.45;2.58;;;;;;;;;;5104900;28;20052;-68
2022/02/24 09:17:34;;;;;;;5.07;2.70;;;;;;;;;;5094132;28;20031;-69
2022/02/24 09:20:00;;;;;;;3.83;1.90;;;;;;;;;;5095979;28;20024;-68
2022/02/24 09:22:26;;;;;;;2.97;1.75;;;;;;;;;;5096423;28;20020;-68
2022/02/24 09:24:52;;;;;;;4.60;1.70;;;;;;;;;;5079037;28;20500;-68
2022/02/24 09:27:18;;;;;;;2.90;1.77;;;;;;;;;;5096160;28;20248;-68
2022/02/24 09:29:44;;;;;;;6.45;2.00;;;;;;;;;;5074687;28;20044;-68
2022/02/24 09:32:10;;;;;;;5.18;1.88;;;;;;;;;;5077729;28;20149;-68
2022/02/24 09:34:37;;;;;;;3.85;1.67;;;;;;;;;;5096387;28;20074;-68
2022/02/24 09:37:03;;;;;;;3.35;1.65;;;;;;;;;;5078443;28;20024;-69
2022/02/24 09:39:29;;;;;;;2.47;1.60;;;;;;;;;;5094261;28;20028;-69
2022/02/24 09:41:55;;;;;;;2.47;1.40;;;;;;;;;;5107264;28;20111;-69
2022/02/24 09:44:21;;;;;;;3.30;2.05;;;;;;;;;;5107674;28;20555;-69
2022/02/24 09:46:47;;;;;;;2.75;1.75;;;;;;;;;;5096721;28;20099;-70
2022/02/24 09:49:17;;;;;;;3.53;2.05;;;;;;;;;;5096272;28;20024;-69
2022/02/24 09:51:45;;;;;;;3.00;2.00;;;;;;;;;;5078999;28;20028;-69
2022/02/24 09:54:12;;;;;;;3.55;1.63;;;;;;;;;;5094669;28;20030;-69
2022/02/24 09:56:38;;;;;;;3.88;1.83;;;;;;;;;;5093137;28;20056;-69
2022/02/24 09:59:04;;;;;;;4.68;1.95;;;;;;;;;;5095779;28;20024;-69
2022/02/24 10:01:31;;;;;;;2.40;1.55;;;;;;;;;;5078331;28;20020;-69
2022/02/24 10:03:59;;;;;;;3.33;1.77;;;;;;;;;;5096330;28;20024;-69
2022/02/24 10:06:25;;;;;;;;;;;;;;;;;;5079429;28;20042;-69
2022/02/24 10:08:53;;;;;;;4.20;1.80;;;;;;;;;;5091742;28;20375;-69
2022/02/24 10:11:23;;;;;;;4.43;1.60;;;;;;;;;;5095193;28;20039;-69
2022/02/24 10:14:01;;;;;;;3.10;1.77;;;;;;;;;;5105367;28;20248;-69
2022/02/24 10:16:28;;;;;;;3.72;1.85;;;;;;;;;;5098481;28;20062;-69
2022/02/24 10:18:55;;;;;;;3.85;1.70;;;;;;;;;;5078117;28;20419;-69
2022/02/24 10:21:21;;;;;;;4.03;1.95;;;;;;;;;;5096401;28;20429;-69
2022/02/24 10:23:48;;;;;;;2.65;1.70;;;;;;;;;;5091681;28;20032;-69
2022/02/24 10:26:15;;;;;;;3.47;2.00;;;;;;;;;;5095234;28;20081;-69
2022/02/24 10:28:42;;;;;;;3.63;1.60;;;;;;;;;;5066402;28;20098;-69
2022/02/24 10:31:14;;;;;;;3.47;1.75;;;;;;;;;;5055431;28;20409;-69
2022/02/24 10:33:41;;;;;;;3.88;1.80;;;;;;;;;;5055845;28;20036;-69
2022/02/24 10:36:15;;;;;;;3.70;1.90;;;;;;;;;;5052860;28;20038;-69
2022/02/24 10:38:46;;;;;;;2.80;1.77;;;;;;;;;;5051616;28;20033;-69
2022/02/24 10:41:12;;;;;;;4.90;2.00;;;;;;;;;;5057849;28;20021;-69
2022/02/24 10:43:39;;;;;;;3.72;2.00;;;;;;;;;;5058637;28;20501;-69
2022/02/24 10:46:08;;;;;;;3.20;1.70;;;;;;;;;;5058939;28;20043;-69
2022/02/24 10:48:50;;;;;;;5.85;2.28;;;;;;;;;;5058167;28;20276;-69
2022/02/24 10:51:24;;;;;;;3.67;1.98;;;;;;;;;;5057821;28;20029;-69
2022/02/24 10:54:09;;;;;;;2.65;1.95;;;;;;;;;;5055231;28;20047;-69
2022/02/24 10:56:36;;;;;;;4.25;2.20;;;;;;;;;;5056125;28;20033;-69
2022/02/24 10:59:02;;;;;;;5.90;1.90;;;;;;;;;;5058033;28;20033;-69
2022/02/24 11:01:29;;;;;;;4.50;2.08;;;;;;;;;;5058241;28;20180;-69
2022/02/24 11:03:57;;;;;;;4.05;2.47;;;;;;;;;;5059022;28;20163;-69
2022/02/24 11:06:24;;;;;;;6.97;2.60;;;;;;;;;;5057861;28;20025;-69
2022/02/24 11:08:52;;;;;;;4.22;2.72;;;;;;;;;;5064193;28;20025;-69
2022/02/24 11:11:19;;;;;;;7.03;3.00;;;;;;;;;;5073785;28;20074;-70
2022/02/24 11:13:45;;;;;;;5.40;2.97;;;;;;;;;;5070220;28;20048;-69
2022/02/24 11:16:12;;;;;;;5.68;3.22;;;;;;;;;;5071173;28;20122;-69
2022/02/24 11:18:41;;;;;;;6.45;3.05;;;;;;;;;;5072088;28;20059;-70
2022/02/24 11:21:11;;;;;;;6.78;3.97;;;;;;;;;;5072252;28;20120;-69
2022/02/24 11:23:38;;;;;;;5.70;3.83;;;;;;;;;;5071558;28;20013;-68
2022/02/24 11:26:10;;;;;;;5.43;3.55;;;;;;;;;;5073315;28;20051;-69
2022/02/24 11:28:40;;;;;;;6.10;3.75;;;;;;;;;;5070304;28;20048;-69
2022/02/24 11:31:15;;;;;;;7.28;4.88;;;;;;;;;;5071709;28;20036;-70
2022/02/24 11:33:42;;;;;;;7.97;4.50;;;;;;;;;;5069489;28;20063;-69
2022/02/24 11:36:09;;;;;;;8.60;5.30;;;;;;;;;;5070891;28;20033;-69
2022/02/24 11:38:35;;;;;;;10.07;6.00;;;;;;;;;;5071031;28;20545;-69
2022/02/24 11:41:09;;;;;;;8.52;4.80;;;;;;;;;;5072954;28;20501;-69
2022/02/24 11:43:36;;;;;;;8.23;5.50;;;;;;;;;;5071306;28;20032;-69
2022/02/24 11:46:04;;;;;;;8.77;5.88;;;;;;;;;;5071451;28;20435;-69
2022/02/24 11:48:34;;;;;;;8.50;5.40;;;;;;;;;;5071253;28;20033;-69
2022/02/24 11:51:00;;;;;;;7.85;5.40;;;;;;;;;;5068031;28;20489;-69
2022/02/24 11:53:26;;;;;;;12.70;7.47;;;;;;;;;;5070378;28;20023;-70
2022/02/24 11:55:59;;;;;;;11.18;8.13;;;;;;;;;;5072394;28;20509;-69
2022/02/24 11:58:34;;;;;;;12.90;8.95;;;;;;;;;;5068409;28;20362;-69
2022/02/24 12:01:07;;;;;;;13.60;9.32;;;;;;;;;;5068309;28;20362;-70
2022/02/24 12:03:45;;;;;;;12.30;7.55;;;;;;;;;;5071063;28;20029;-70
2022/02/24 12:06:14;;;;;;;12.93;9.30;;;;;;;;;;5069630;28;20030;-70
2022/02/24 12:08:59;;;;;;;12.30;9.35;;;;;;;;;;5069744;28;20039;-75
2022/02/24 12:11:37;;;;;;;15.10;9.73;;;;;;;;;;5070557;28;20033;-71
2022/02/24 12:14:24;;;;;;;12.65;9.23;;;;;;;;;;5064127;28;20095;-70
2022/02/24 12:17:05;;;;;;;14.65;9.20;;;;;;;;;;5057698;28;20103;-71
2022/02/24 12:19:42;;;;;;;14.50;9.07;;;;;;;;;;5057594;28;20025;-74
2022/02/24 12:22:20;;;;;;;12.65;8.73;;;;;;;;;;5056532;28;20378;-69
2022/02/24 12:24:47;;;;;;;13.02;8.35;;;;;;;;;;5056992;28;20401;-69
2022/02/24 12:27:25;;;;;;;12.75;7.70;;;;;;;;;;5055945;28;20116;-69
2022/02/24 12:29:54;;;;;;;12.25;9.13;;;;;;;;;;5092448;28;20057;-69
2022/02/24 12:32:20;;;;;;;14.27;9.55;;;;;;;;;;5111934;28;20094;-70
2022/02/24 12:34:46;;;;;;;14.00;10.18;;;;;;;;;;5111383;28;20511;-71
2022/02/24 12:37:13;;;;;;;12.75;9.55;;;;;;;;;;5093375;28;20028;-70
2022/02/24 12:39:40;;;;;;;12.07;9.50;;;;;;;;;;5108534;28;20058;-75
2022/02/24 12:42:07;;;;;;;13.00;10.43;;;;;;;;;;5076803;28;20154;-69
2022/02/24 12:44:35;;;;;;;13.02;10.00;;;;;;;;;;5094784;28;20089;-69
2022/02/24 12:47:01;;;;;;;;;;;;;;;;;;5097091;28;20032;-69
2022/02/24 12:49:27;;;;;;;14.02;10.18;;;;;;;;;;5096853;28;19920;-69
2022/02/24 12:51:59;;;;;;;14.18;10.27;;;;;;;;;;5097254;28;20036;-69
2022/02/24 12:54:26;;;;;;;13.48;9.90;;;;;;;;;;5097218;28;20028;-69
2022/02/24 12:56:52;;;;;;;14.77;10.77;;;;;;;;;;5092243;28;20046;-69
2022/02/24 12:59:19;;;;;;;13.30;10.93;;;;;;;;;;5095898;28;20031;-69
2022/02/24 13:01:47;;;;;;;14.88;10.68;;;;;;;;;;5096441;28;20488;-69
2022/02/24 13:04:14;;;;;;;15.60;10.93;;;;;;;;;;5104378;28;20157;-69
2022/02/24 13:06:40;;;;;;;13.10;10.40;;;;;;;;;;5087946;28;20027;-69
2022/02/24 13:11:58;;;;;;;18.58;11.07;;;;;;;;;;5093121;28;20043;-69
2022/02/24 13:14:24;;;;;;;17.38;10.70;;;;;;;;;;5104657;28;20068;-69
2022/02/24 13:16:52;;;;;;;16.65;10.60;;;;;;;;;;5097132;28;20036;-69
2022/02/24 13:19:18;;;;;;;13.55;10.55;;;;;;;;;;5096628;28;20027;-69
2022/02/24 13:21:45;;;;;;;13.95;10.40;;;;;;;;;;5096753;28;20016;-69
2022/02/24 13:24:11;;;;;;;14.30;11.25;;;;;;;;;;5095194;28;20614;-69
2022/02/24 13:26:40;;;;;;;17.15;11.05;;;;;;;;;;5093131;28;20020;-69
2022/02/24 13:29:09;;;;;;;17.02;11.02;;;;;;;;;;5106917;28;20078;-70
2022/02/24 13:31:36;;;;;;;16.95;11.30;;;;;;;;;;5080011;28;20078;-69
2022/02/24 13:34:19;;;;;;;13.95;10.63;;;;;;;;;;5078753;28;20450;-70
2022/02/24 13:36:45;;;;;;;17.60;12.00;;;;;;;;;;5096580;28;20077;-69
2022/02/24 13:39:28;;;;;;;17.10;10.95;;;;;;;;;;5094417;28;20039;-69
2022/02/24 13:41:55;;;;;;;14.75;11.20;;;;;;;;;;5092791;28;20032;-69
2022/02/24 13:44:21;;;;;;;17.23;10.52;;;;;;;;;;5095019;28;20031;-69
2022/02/24 13:46:48;;;;;;;15.93;11.40;;;;;;;;;;5096753;28;20035;-69
2022/02/24 13:49:15;;;;;;;16.65;11.70;;;;;;;;;;5096358;28;20042;-70
2022/02/24 13:51:41;;;;;;;17.98;11.90;;;;;;;;;;5096770;28;20484;-69
2022/02/24 13:54:08;;;;;;;15.70;11.93;;;;;;;;;;5093776;28;20504;-69
2022/02/24 13:56:42;;;;;;;16.15;12.45;;;;;;;;;;5094072;28;20028;-69
2022/02/24 13:59:09;;;;;;;19.77;12.60;;;;;;;;;;5077853;28;20036;-69
2022/02/24 14:01:39;;;;;;;18.27;12.88;;;;;;;;;;5096231;28;20373;-69
2022/02/24 14:04:13;;;;;;;15.82;11.48;;;;;;;;;;5078608;28;20481;-69
2022/02/24 14:06:43;;;;;;;15.85;11.77;;;;;;;;;;5096653;28;20027;-69
2022/02/24 14:09:17;;;;;;;17.70;12.02;;;;;;;;;;5094129;28;20102;-69
2022/02/24 14:11:44;;;;;;;17.38;12.32;;;;;;;;;;5092729;28;20054;-69
2022/02/24 14:14:11;;;;;;;18.27;12.48;;;;;;;;;;5108091;28;20067;-69
2022/02/24 14:16:37;;;;;;;17.77;12.65;;;;;;;;;;5085405;28;20020;-69
2022/02/24 14:19:03;;;;;;;15.35;11.70;;;;;;;;;;5100017;28;20035;-69
2022/02/24 14:21:29;;;;;;;16.88;11.35;;;;;;;;;;5100315;28;20024;-69
2022/02/24 14:23:55;;;;;;;16.77;12.48;;;;;;;;;;5096418;28;20062;-69
2022/02/24 14:26:22;;;;;;;16.25;12.13;;;;;;;;;;5098262;28;20028;-69
2022/02/24 14:28:49;;;;;;;17.77;11.82;;;;;;;;;;5068829;28;20041;-70
2022/02/24 14:31:17;;;;;;;17.55;11.50;;;;;;;;;;5059408;28;20040;-69
2022/02/24 14:33:43;;;;;;;18.15;12.32;;;;;;;;;;5058915;28;20039;-69
2022/02/24 14:36:09;;;;;;;16.08;11.65;;;;;;;;;;5057941;28;20029;-69
2022/02/24 14:38:36;;;;;;;15.32;11.38;;;;;;;;;;5056207;28;20032;-69
2022/02/24 14:41:02;;;;;;;16.60;11.38;;;;;;;;;;5057424;28;20025;-69